sensor_id;sensor_type;location;lat;lon;timestamp;pressure;altitude;pressure_sealevel;temperature;humidity
58739;BME280;44512;53.046;18.604;2023-03-20T00:04:41;101611.95;;;9.94;54.24
58739;BME280;44512;53.046;18.604;2023-03-20T00:15:21;101610.95;;;9.86;54.51
58739;BME280;44512;53.046;18.604;2023-03-20T00:25:38;101607.27;;;9.79;54.70
58739;BME280;44512;53.046;18.604;2023-03-20T00:36:08;101589.56;;;9.69;54.81
58739;BME280;44512;53.046;18.604;2023-03-20T00:46:37;101586.40;;;9.57;55.01
58739;BME280;44512;53.046;18.604;2023-03-20T01:07:32;101561.75;;;9.35;54.80
58739;BME280;44512;53.046;18.604;2023-03-20T01:18:00;101563.13;;;9.23;54.99
58739;BME280;44512;53.046;18.604;2023-03-20T01:28:30;101547.95;;;9.14;55.32
58739;BME280;44512;53.046;18.604;2023-03-20T01:38:58;101548.99;;;9.05;55.45
58739;BME280;44512;53.046;18.604;2023-03-20T02:00:04;101535.14;;;8.83;55.80
58739;BME280;44512;53.046;18.604;2023-03-20T02:10:23;101532.46;;;8.75;56.19
58739;BME280;44512;53.046;18.604;2023-03-20T02:52:32;101518.62;;;8.62;57.66
58739;BME280;44512;53.046;18.604;2023-03-20T03:02:52;101514.24;;;8.61;58.05
58739;BME280;44512;53.046;18.604;2023-03-20T03:13:19;101511.73;;;8.59;58.44
58739;BME280;44512;53.046;18.604;2023-03-20T03:23:46;101512.56;;;8.60;58.75
58739;BME280;44512;53.046;18.604;2023-03-20T03:34:14;101507.16;;;8.60;58.92
58739;BME280;44512;53.046;18.604;2023-03-20T03:44:48;101505.48;;;8.59;59.09
58739;BME280;44512;53.046;18.604;2023-03-20T03:55:12;101514.56;;;8.58;59.23
58739;BME280;44512;53.046;18.604;2023-03-20T04:05:40;101498.37;;;8.58;59.49
58739;BME280;44512;53.046;18.604;2023-03-20T04:16:05;101497.53;;;8.57;59.55
58739;BME280;44512;53.046;18.604;2023-03-20T04:26:33;101500.59;;;8.54;59.60
58739;BME280;44512;53.046;18.604;2023-03-20T04:37:02;101494.02;;;8.49;59.62
58739;BME280;44512;53.046;18.604;2023-03-20T04:47:30;101491.81;;;8.44;59.51
58739;BME280;44512;53.046;18.604;2023-03-20T04:57:59;101495.33;;;8.37;59.53
58739;BME280;44512;53.046;18.604;2023-03-20T05:08:27;101490.06;;;8.27;59.65
58739;BME280;44512;53.046;18.604;2023-03-20T05:18:56;101497.80;;;8.22;59.66
58739;BME280;44512;53.046;18.604;2023-03-20T05:29:24;101514.52;;;8.17;60.02
58739;BME280;44512;53.046;18.604;2023-03-20T05:39:53;101511.98;;;8.24;60.51
58739;BME280;44512;53.046;18.604;2023-03-20T05:50:21;101506.76;;;8.30;60.69
58739;BME280;44512;53.046;18.604;2023-03-20T06:00:50;101516.22;;;8.34;60.96
58739;BME280;44512;53.046;18.604;2023-03-20T06:11:18;101510.87;;;8.43;61.24
58739;BME280;44512;53.046;18.604;2023-03-20T06:21:48;101521.66;;;8.51;61.43
58739;BME280;44512;53.046;18.604;2023-03-20T06:32:16;101538.85;;;8.50;61.87
58739;BME280;44512;53.046;18.604;2023-03-20T06:42:44;101535.66;;;8.54;62.60
58739;BME280;44512;53.046;18.604;2023-03-20T06:53:12;101536.17;;;8.66;63.05
58739;BME280;44512;53.046;18.604;2023-03-20T07:03:41;101532.98;;;8.79;63.13
58739;BME280;44512;53.046;18.604;2023-03-20T07:14:10;101545.77;;;8.93;63.30
58739;BME280;44512;53.046;18.604;2023-03-20T07:24:38;101544.44;;;9.05;63.57
58739;BME280;44512;53.046;18.604;2023-03-20T07:35:07;101557.07;;;9.21;63.84
58739;BME280;44512;53.046;18.604;2023-03-20T07:45:35;101563.47;;;9.36;64.52
58739;BME280;44512;53.046;18.604;2023-03-20T07:56:04;101564.59;;;9.50;65.00
58739;BME280;44512;53.046;18.604;2023-03-20T08:06:32;101564.91;;;9.63;65.20
58739;BME280;44512;53.046;18.604;2023-03-20T08:17:00;101573.48;;;9.75;66.14
58739;BME280;44512;53.046;18.604;2023-03-20T08:27:29;101571.41;;;9.85;67.13
58739;BME280;44512;53.046;18.604;2023-03-20T08:37:57;101578.48;;;9.95;68.15
58739;BME280;44512;53.046;18.604;2023-03-20T08:48:25;101571.84;;;10.05;69.85
58739;BME280;44512;53.046;18.604;2023-03-20T08:58:54;101574.33;;;10.15;70.68
58739;BME280;44512;53.046;18.604;2023-03-20T09:09:22;101581.43;;;10.24;70.90
58739;BME280;44512;53.046;18.604;2023-03-20T09:19:51;101595.58;;;10.34;71.50
58739;BME280;44512;53.046;18.604;2023-03-20T09:35:20;101571.15;;;10.42;71.24
58739;BME280;44512;53.046;18.604;2023-03-20T09:56:23;101570.34;;;10.65;70.98
58739;BME280;44512;53.046;18.604;2023-03-20T10:06:46;101550.23;;;10.82;71.54
58739;BME280;44512;53.046;18.604;2023-03-20T10:17:22;101539.25;;;10.99;71.76
58739;BME280;44512;53.046;18.604;2023-03-20T10:27:49;101548.53;;;11.19;72.07
58739;BME280;44512;53.046;18.604;2023-03-20T10:48:47;101547.91;;;11.46;72.52
58739;BME280;44512;53.046;18.604;2023-03-20T10:59:20;101552.86;;;11.58;72.85
58739;BME280;44512;53.046;18.604;2023-03-20T11:09:37;101548.01;;;11.68;72.37
58739;BME280;44512;53.046;18.604;2023-03-20T11:20:06;101549.59;;;11.77;72.22
58739;BME280;44512;53.046;18.604;2023-03-20T11:30:39;101548.57;;;11.93;72.11
58739;BME280;44512;53.046;18.604;2023-03-20T11:41:03;101523.30;;;12.07;72.06
58739;BME280;44512;53.046;18.604;2023-03-20T11:51:31;101522.62;;;12.20;71.92
58739;BME280;44512;53.046;18.604;2023-03-20T12:02:02;101506.46;;;12.33;71.82
58739;BME280;44512;53.046;18.604;2023-03-20T12:12:37;101507.24;;;12.48;71.37
58739;BME280;44512;53.046;18.604;2023-03-20T13:15:26;101484.34;;;13.35;66.82
58739;BME280;44512;53.046;18.604;2023-03-20T13:36:24;101464.74;;;13.46;66.99
58739;BME280;44512;53.046;18.604;2023-03-20T13:46:46;101432.55;;;13.50;67.27
58739;BME280;44512;53.046;18.604;2023-03-20T14:07:43;101418.61;;;13.73;66.63
58739;BME280;44512;53.046;18.604;2023-03-20T14:18:14;101422.83;;;13.82;66.19
58739;BME280;44512;53.046;18.604;2023-03-20T14:39:13;101418.84;;;13.85;65.09
58739;BME280;44512;53.046;18.604;2023-03-20T15:00:02;101403.39;;;13.92;65.43
58739;BME280;44512;53.046;18.604;2023-03-20T15:10:33;101399.21;;;13.96;65.13
58739;BME280;44512;53.046;18.604;2023-03-20T15:20:58;101401.29;;;14.00;64.42
58739;BME280;44512;53.046;18.604;2023-03-20T15:31:30;101392.10;;;14.01;62.39
58739;BME280;44512;53.046;18.604;2023-03-20T15:42:02;101406.34;;;14.03;61.33
58739;BME280;44512;53.046;18.604;2023-03-20T15:52:39;101442.32;;;13.92;62.01
58739;BME280;44512;53.046;18.604;2023-03-20T16:02:52;101457.72;;;13.65;63.80
58739;BME280;44512;53.046;18.604;2023-03-20T16:13:21;101470.18;;;13.46;64.66
58739;BME280;44512;53.046;18.604;2023-03-20T16:23:54;101485.15;;;13.29;65.08
58739;BME280;44512;53.046;18.604;2023-03-20T16:34:21;101495.61;;;13.04;63.64
58739;BME280;44512;53.046;18.604;2023-03-20T16:44:46;101506.44;;;12.76;62.01
58739;BME280;44512;53.046;18.604;2023-03-20T16:55:18;101505.51;;;12.62;61.83
58739;BME280;44512;53.046;18.604;2023-03-20T17:05:50;101521.27;;;12.52;61.56
58739;BME280;44512;53.046;18.604;2023-03-20T17:16:18;101530.79;;;12.41;61.40
58739;BME280;44512;53.046;18.604;2023-03-20T17:26:42;101535.17;;;12.42;61.33
58739;BME280;44512;53.046;18.604;2023-03-20T17:37:16;101531.52;;;12.35;61.26
58739;BME280;44512;53.046;18.604;2023-03-20T17:47:36;101531.52;;;12.35;61.34
58739;BME280;44512;53.046;18.604;2023-03-20T17:58:04;101541.48;;;12.28;61.49
58739;BME280;44512;53.046;18.604;2023-03-20T18:08:33;101536.46;;;12.25;61.52
58739;BME280;44512;53.046;18.604;2023-03-20T18:19:01;101533.84;;;12.17;61.66
58739;BME280;44512;53.046;18.604;2023-03-20T18:29:30;101539.38;;;12.09;61.84
58739;BME280;44512;53.046;18.604;2023-03-20T18:39:58;101541.72;;;12.12;61.82
58739;BME280;44512;53.046;18.604;2023-03-20T18:50:33;101536.56;;;12.17;61.78
58739;BME280;44512;53.046;18.604;2023-03-20T19:00:56;101546.78;;;12.15;61.78
58739;BME280;44512;53.046;18.604;2023-03-20T19:11:23;101541.17;;;12.02;61.95
58739;BME280;44512;53.046;18.604;2023-03-20T19:21:52;101546.98;;;11.98;62.16
58739;BME280;44512;53.046;18.604;2023-03-20T19:32:20;101549.04;;;11.96;62.35
58739;BME280;44512;53.046;18.604;2023-03-20T19:42:49;101542.58;;;11.97;62.38
58739;BME280;44512;53.046;18.604;2023-03-20T19:53:20;101537.83;;;11.99;62.42
58739;BME280;44512;53.046;18.604;2023-03-20T20:03:46;101533.23;;;12.00;62.42
58739;BME280;44512;53.046;18.604;2023-03-20T20:14:14;101523.25;;;11.86;62.69
58739;BME280;44512;53.046;18.604;2023-03-20T20:24:42;101526.33;;;11.83;63.28
58739;BME280;44512;53.046;18.604;2023-03-20T20:35:12;101526.97;;;11.70;63.87
58739;BME280;44512;53.046;18.604;2023-03-20T20:45:39;101529.20;;;11.66;64.27
58739;BME280;44512;53.046;18.604;2023-03-20T20:56:08;101531.16;;;11.58;64.36
58739;BME280;44512;53.046;18.604;2023-03-20T21:06:36;101538.77;;;11.47;64.58
58739;BME280;44512;53.046;18.604;2023-03-20T21:17:05;101542.31;;;11.33;64.96
58739;BME280;44512;53.046;18.604;2023-03-20T21:27:33;101543.88;;;11.28;65.18
58739;BME280;44512;53.046;18.604;2023-03-20T21:38:01;101551.06;;;11.20;65.48
58739;BME280;44512;53.046;18.604;2023-03-20T21:48:30;101553.87;;;11.12;65.77
58739;BME280;44512;53.046;18.604;2023-03-20T21:58:58;101562.83;;;11.13;66.00
58739;BME280;44512;53.046;18.604;2023-03-20T22:09:26;101564.86;;;11.11;66.19
58739;BME280;44512;53.046;18.604;2023-03-20T22:19:55;101569.70;;;11.01;66.63
58739;BME280;44512;53.046;18.604;2023-03-20T22:30:23;101570.43;;;10.94;66.94
58739;BME280;44512;53.046;18.604;2023-03-20T22:40:52;101570.72;;;11.00;66.94
58739;BME280;44512;53.046;18.604;2023-03-20T22:51:20;101572.40;;;11.01;67.24
58739;BME280;44512;53.046;18.604;2023-03-20T23:01:48;101565.99;;;11.02;67.01
58739;BME280;44512;53.046;18.604;2023-03-20T23:12:17;101561.86;;;11.06;66.76
58739;BME280;44512;53.046;18.604;2023-03-20T23:22:45;101554.40;;;11.08;66.51
58739;BME280;44512;53.046;18.604;2023-03-20T23:33:14;101540.86;;;11.08;66.42
58739;BME280;44512;53.046;18.604;2023-03-20T23:43:42;101536.48;;;11.07;66.38
58739;BME280;44512;53.046;18.604;2023-03-20T23:54:11;101545.15;;;11.02;66.56
